Time;durP1;ratioP1;P1;durP2;ratioP2;P2;SDS_P1;SDS_P2;PMS_P1;PMS_P2;Temp;Humidity;BMP_temperature;BMP_pressure;BME280_temperature;BME280_humidity;BME280_pressure;Samples;Min_cycle;Max_cycle;Signal;HPM_P1;HPM_P2
2022/01/26 00:06:47;;;;;;;50.95;22.58;;;1.00;99.90;;;;;;5076862;28;20215;-70
2022/01/26 00:09:14;;;;;;;58.65;24.38;;;1.10;99.90;;;;;;5076206;28;20705;-69
2022/01/26 00:11:41;;;;;;;52.25;23.20;;;1.20;99.90;;;;;;5076581;28;20224;-70
2022/01/26 00:14:11;;;;;;;47.80;22.73;;;1.20;99.90;;;;;;5076413;28;20261;-70
2022/01/26 00:16:40;;;;;;;44.47;19.08;;;1.10;99.90;;;;;;5075475;28;20180;-70
2022/01/26 00:19:10;;;;;;;43.08;19.50;;;1.00;99.90;;;;;;5076301;28;20609;-70
2022/01/26 00:21:47;;;;;;;44.05;20.13;;;1.00;99.90;;;;;;5075742;28;20200;-69
2022/01/26 00:25:19;;;;;;;41.42;18.80;;;1.00;99.90;;;;;;5075985;28;20192;-70
2022/01/26 00:27:10;;;;;;;43.25;19.05;;;1.00;99.90;;;;;;5073080;28;20203;-69
2022/01/26 00:29:40;;;;;;;54.83;21.60;;;1.10;99.90;;;;;;5075117;28;20204;-70
2022/01/26 00:43:00;;;;;;;52.85;21.52;;;1.00;99.90;;;;;;5075696;28;20245;-70
2022/01/26 00:45:34;;;;;;;56.72;24.17;;;1.00;99.90;;;;;;5075736;28;20211;-70
2022/01/26 00:48:04;;;;;;;71.82;25.05;;;0.90;99.90;;;;;;5075802;28;20195;-69
2022/01/26 00:50:32;;;;;;;74.85;25.58;;;0.90;99.90;;;;;;5075495;28;20232;-69
2022/01/26 00:53:00;;;;;;;72.50;24.90;;;0.90;99.90;;;;;;5073841;28;20238;-69
2022/01/26 00:55:27;;;;;;;80.90;24.35;;;0.80;99.90;;;;;;5075563;28;20253;-70
2022/01/26 00:58:10;;;;;;;69.72;26.10;;;0.80;99.90;;;;;;5075324;28;20184;-70
2022/01/26 01:00:37;;;;;;;73.65;24.15;;;0.70;99.90;;;;;;5075572;28;20663;-70
2022/01/26 01:03:03;;;;;;;82.93;25.25;;;0.80;99.90;;;;;;5075372;28;20245;-70
2022/01/26 01:05:52;;;;;;;81.35;25.98;;;0.80;99.90;;;;;;5075246;28;20249;-69
2022/01/26 01:08:19;;;;;;;90.30;29.05;;;0.80;99.90;;;;;;5075243;28;20655;-70
2022/01/26 01:10:48;;;;;;;78.50;25.75;;;0.70;99.90;;;;;;5074830;28;20223;-69
2022/01/26 01:13:19;;;;;;;72.78;26.83;;;0.70;99.90;;;;;;5074745;28;20261;-70
2022/01/26 01:15:47;;;;;;;84.55;27.25;;;0.70;99.90;;;;;;5073788;28;20199;-69
2022/01/26 01:18:21;;;;;;;72.55;27.23;;;0.80;99.90;;;;;;5074883;28;20655;-70
2022/01/26 01:29:22;;;;;;;80.93;27.80;;;0.70;99.90;;;;;;5075056;28;20196;-70
2022/01/26 01:31:44;;;;;;;87.78;27.45;;;0.70;99.90;;;;;;5070275;28;20216;-69
2022/01/26 01:34:05;;;;;;;76.88;25.20;;;0.70;99.90;;;;;;5073956;28;20200;-69
2022/01/26 01:36:33;;;;;;;86.55;29.75;;;0.70;99.90;;;;;;5074272;28;20249;-71
2022/01/26 01:38:59;;;;;;;88.95;26.80;;;0.70;99.90;;;;;;5074311;28;20214;-69
2022/01/26 01:41:26;;;;;;;75.60;25.95;;;0.70;99.90;;;;;;5074531;28;20260;-70
2022/01/26 01:43:52;;;;;;;70.72;25.10;;;0.70;99.90;;;;;;5074238;28;20253;-69
2022/01/26 01:46:19;;;;;;;84.25;24.92;;;0.60;99.90;;;;;;5074040;28;20254;-69
2022/01/26 01:48:45;;;;;;;93.47;26.20;;;0.60;99.90;;;;;;5074424;28;20622;-70
2022/01/26 01:51:15;;;;;;;109.25;26.70;;;0.60;99.90;;;;;;5073851;28;20234;-70
2022/01/26 01:53:44;;;;;;;90.13;26.67;;;0.60;99.90;;;;;;5074220;28;20203;-70
2022/01/26 01:56:14;;;;;;;74.80;26.23;;;0.70;99.90;;;;;;5074146;28;20200;-70
2022/01/26 01:58:41;;;;;;;71.65;25.17;;;0.60;99.90;;;;;;5074445;28;20196;-69
2022/01/26 02:01:08;;;;;;;82.85;26.65;;;0.60;99.90;;;;;;5074734;28;20203;-71
2022/01/26 02:03:34;;;;;;;72.60;25.70;;;0.60;99.90;;;;;;5073830;28;20261;-70
2022/01/26 02:06:01;;;;;;;81.53;26.38;;;0.60;99.90;;;;;;5073122;28;20223;-70
2022/01/26 02:08:27;;;;;;;69.10;25.35;;;0.60;99.90;;;;;;5074227;28;20208;-71
2022/01/26 02:10:54;;;;;;;86.32;29.00;;;0.60;99.90;;;;;;5074097;28;20228;-71
2022/01/26 02:13:35;;;;;;;70.53;26.67;;;0.50;99.90;;;;;;5074437;28;20203;-70
2022/01/26 02:16:46;;;;;;;73.70;27.20;;;0.60;99.90;;;;;;5073897;28;20192;-70
2022/01/26 03:07:03;;;;;;;67.75;26.13;;;0.30;99.90;;;;;;5078014;28;20243;-71
2022/01/26 03:09:42;;;;;;;63.83;25.30;;;0.40;99.90;;;;;;5077547;28;20210;-70
2022/01/26 03:12:10;;;;;;;77.82;27.75;;;0.40;99.90;;;;;;5077638;28;20210;-71
2022/01/26 03:14:51;;;;;;;64.57;27.77;;;0.50;99.90;;;;;;5077162;28;20199;-71
2022/01/26 03:17:38;;;;;;;67.50;27.55;;;0.40;99.90;;;;;;5075671;28;20623;-70
2022/01/26 03:20:10;;;;;;;52.55;23.55;;;0.50;99.90;;;;;;5077217;28;20554;-71
2022/01/26 03:28:24;;;;;;;51.85;25.40;;;0.40;99.90;;;;;;5076961;28;20191;-71
2022/01/26 03:36:17;;;;;;;61.33;25.27;;;0.60;99.90;;;;;;5076838;28;20184;-71
2022/01/26 03:38:47;;;;;;;52.22;20.92;;;0.50;99.90;;;;;;5076922;28;20204;-70
2022/01/26 03:41:33;;;;;;;50.95;22.05;;;0.50;99.90;;;;;;5076825;28;20212;-70
2022/01/26 03:44:00;;;;;;;52.95;21.85;;;0.60;99.90;;;;;;5077559;28;20244;-71
2022/01/26 03:46:26;;;;;;;41.28;20.75;;;0.60;99.90;;;;;;5077050;28;20238;-70
2022/01/26 03:48:53;;;;;;;47.80;20.85;;;0.60;99.90;;;;;;5077321;28;20210;-70
2022/01/26 03:51:19;;;;;;;45.15;19.70;;;0.60;99.90;;;;;;5075044;28;20223;-71
2022/01/26 03:53:46;;;;;;;52.45;23.02;;;0.60;99.90;;;;;;5076207;28;20246;-71
2022/01/26 03:56:12;;;;;;;47.00;21.02;;;0.70;99.90;;;;;;5076458;28;20203;-70
2022/01/26 03:58:39;;;;;;;44.58;21.25;;;0.70;99.90;;;;;;5076234;28;20210;-70
2022/01/26 04:01:05;;;;;;;38.22;19.35;;;0.70;99.90;;;;;;5076089;28;20245;-71
2022/01/26 04:03:32;;;;;;;41.60;19.00;;;0.70;99.90;;;;;;5076464;28;20211;-70
2022/01/26 04:05:58;;;;;;;39.55;19.90;;;0.60;99.90;;;;;;5076251;28;20219;-70
2022/01/26 04:08:29;;;;;;;36.17;19.58;;;0.60;99.90;;;;;;5076005;28;20260;-70
2022/01/26 04:13:25;;;;;;;42.75;22.63;;;0.70;99.90;;;;;;5076187;28;20204;-70
2022/01/26 04:15:51;;;;;;;39.13;19.27;;;0.70;99.90;;;;;;5076139;28;20554;-71
2022/01/26 04:18:23;;;;;;;37.10;19.25;;;0.70;99.90;;;;;;5076109;28;20245;-70
2022/01/26 04:20:54;;;;;;;40.92;17.98;;;0.80;99.90;;;;;;5076175;28;20196;-71
2022/01/26 04:25:59;;;;;;;47.55;21.38;;;0.90;99.90;;;;;;5076339;28;20195;-71
2022/01/26 04:28:36;;;;;;;45.83;22.35;;;0.70;99.90;;;;;;5076159;28;20567;-71
2022/01/26 04:31:02;;;;;;;43.58;22.08;;;0.60;99.90;;;;;;5076273;28;20663;-71
2022/01/26 04:33:32;;;;;;;46.75;22.70;;;0.70;99.90;;;;;;5076096;28;20200;-71
2022/01/26 04:35:59;;;;;;;41.42;19.80;;;0.70;99.90;;;;;;5076044;28;20200;-72
2022/01/26 04:38:36;;;;;;;41.40;20.58;;;0.70;99.90;;;;;;5076139;28;20626;-71
2022/01/26 04:43:33;;;;;;;35.72;19.15;;;0.80;99.90;;;;;;5075675;28;20543;-71
2022/01/26 04:45:59;;;;;;;43.50;21.80;;;0.80;99.90;;;;;;5076104;28;20207;-71
2022/01/26 04:48:26;;;;;;;46.53;21.15;;;0.80;99.90;;;;;;5075816;28;20258;-71
2022/01/26 04:50:53;;;;;;;51.15;21.92;;;0.80;99.90;;;;;;5075597;28;20200;-70
2022/01/26 04:53:20;;;;;;;55.47;22.73;;;0.70;99.90;;;;;;5075328;28;20232;-71
2022/01/26 04:55:46;;;;;;;44.25;20.90;;;0.60;99.90;;;;;;5075569;28;20203;-70
2022/01/26 04:58:13;;;;;;;54.38;22.88;;;0.70;99.90;;;;;;5074093;28;20203;-70
2022/01/26 05:00:39;;;;;;;41.50;19.48;;;0.70;99.90;;;;;;5075244;28;20200;-70
2022/01/26 05:03:05;;;;;;;39.58;19.63;;;0.70;99.90;;;;;;5075225;28;20199;-70
2022/01/26 05:05:32;;;;;;;52.67;23.67;;;0.80;99.90;;;;;;5075632;28;20203;-69
2022/01/26 05:07:58;;;;;;;49.40;23.05;;;0.80;99.90;;;;;;5076608;28;20278;-69
2022/01/26 05:10:25;;;;;;;54.67;22.90;;;0.70;99.90;;;;;;5075090;28;20214;-69
2022/01/26 05:12:51;;;;;;;62.00;24.40;;;0.60;99.90;;;;;;5074177;28;20223;-69
2022/01/26 05:15:21;;;;;;;68.35;25.98;;;0.70;99.90;;;;;;5074554;28;20212;-70
2022/01/26 05:17:48;;;;;;;50.22;23.38;;;0.60;99.90;;;;;;5074493;28;20200;-69
2022/01/26 05:20:15;;;;;;;51.72;23.58;;;0.60;99.90;;;;;;5074870;28;20203;-69
2022/01/26 05:22:43;;;;;;;55.33;24.58;;;0.70;99.90;;;;;;5073502;28;20204;-70
2022/01/26 05:25:11;;;;;;;56.95;25.65;;;0.70;99.90;;;;;;5074395;28;20256;-70
2022/01/26 05:27:38;;;;;;;58.45;25.00;;;0.70;99.90;;;;;;5074476;28;20204;-70
2022/01/26 05:30:07;;;;;;;48.03;24.15;;;0.70;99.90;;;;;;5074798;28;20208;-69
2022/01/26 05:32:34;;;;;;;52.63;23.95;;;0.70;99.90;;;;;;5074726;28;20234;-70
2022/01/26 05:35:00;;;;;;;54.60;23.60;;;0.70;99.90;;;;;;5074338;28;20701;-69
2022/01/26 05:37:27;;;;;;;44.22;20.90;;;0.80;99.90;;;;;;5074294;28;20199;-69
2022/01/26 05:39:53;;;;;;;47.13;23.15;;;0.80;99.90;;;;;;5074453;28;20199;-69
2022/01/26 05:42:20;;;;;;;51.50;22.70;;;0.80;99.90;;;;;;5074173;28;20253;-69
2022/01/26 05:44:46;;;;;;;46.88;24.20;;;0.80;99.90;;;;;;5074294;28;20208;-69
2022/01/26 05:47:17;;;;;;;45.53;21.55;;;0.70;99.90;;;;;;5074188;28;20282;-69
2022/01/26 05:49:44;;;;;;;45.35;20.83;;;0.70;99.90;;;;;;5074303;28;20212;-69
2022/01/26 05:52:11;;;;;;;43.50;23.20;;;0.70;99.90;;;;;;5073800;28;20590;-69
2022/01/26 05:54:38;;;;;;;37.38;19.52;;;0.70;99.90;;;;;;5073455;28;20218;-69
2022/01/26 05:57:04;;;;;;;42.80;20.85;;;0.70;99.90;;;;;;5073507;28;20196;-70
2022/01/26 05:59:32;;;;;;;40.58;20.00;;;0.70;99.90;;;;;;5073993;28;20203;-70
2022/01/26 06:01:59;;;;;;;35.58;20.08;;;0.70;99.90;;;;;;5072951;28;20578;-69
2022/01/26 06:04:27;;;;;;;35.10;19.42;;;0.80;99.90;;;;;;5073854;28;20207;-70
2022/01/26 06:06:55;;;;;;;39.38;18.83;;;0.80;99.90;;;;;;5073911;28;20228;-69
2022/01/26 06:09:21;;;;;;;38.33;17.90;;;0.70;99.90;;;;;;5073577;28;20234;-70
2022/01/26 06:11:47;;;;;;;35.67;17.58;;;0.60;99.90;;;;;;5073259;28;20562;-69
2022/01/26 06:14:14;;;;;;;29.60;15.95;;;0.50;99.90;;;;;;5073774;28;20208;-69
2022/01/26 06:16:40;;;;;;;35.75;17.80;;;0.50;99.90;;;;;;5073440;28;20200;-70
2022/01/26 06:19:07;;;;;;;29.25;17.02;;;0.40;99.90;;;;;;5073893;28;20200;-69
2022/01/26 06:21:33;;;;;;;39.53;17.23;;;0.40;99.90;;;;;;5073801;28;20261;-70
2022/01/26 06:24:00;;;;;;;33.20;15.98;;;0.40;99.90;;;;;;5073700;28;20196;-69
2022/01/26 06:26:26;;;;;;;35.33;17.45;;;0.40;99.90;;;;;;5073284;28;20675;-69
2022/01/26 06:28:52;;;;;;;32.53;17.10;;;0.30;99.90;;;;;;5073557;28;20261;-69
2022/01/26 06:31:41;;;;;;;31.80;17.67;;;0.20;99.90;;;;;;5074581;28;20204;-71
2022/01/26 06:34:11;;;;;;;37.85;16.42;;;0.20;99.90;;;;;;5073970;28;20199;-71
2022/01/26 06:36:43;;;;;;;35.90;17.60;;;0.20;99.90;;;;;;5073153;28;20656;-70
2022/01/26 06:39:11;;;;;;;28.67;15.35;;;0.20;99.90;;;;;;5073670;28;20250;-70
2022/01/26 06:41:39;;;;;;;32.03;18.55;;;0.10;99.90;;;;;;5073803;28;20200;-71
2022/01/26 06:44:32;;;;;;;31.63;17.02;;;0.10;99.90;;;;;;5073504;28;20244;-71
2022/01/26 06:47:14;;;;;;;36.45;18.45;;;0.10;99.90;;;;;;5073760;28;20196;-71
2022/01/26 06:49:40;;;;;;;33.95;18.77;;;0.20;99.90;;;;;;5073249;28;20196;-71
2022/01/26 06:52:07;;;;;;;36.90;16.98;;;0.20;99.90;;;;;;5073058;28;20231;-70
2022/01/26 06:54:33;;;;;;;37.28;18.05;;;0.10;99.90;;;;;;5073681;28;20614;-71
2022/01/26 06:57:00;;;;;;;31.27;17.08;;;0.20;99.90;;;;;;5073856;28;20199;-71
2022/01/26 06:59:26;;;;;;;34.03;17.25;;;0.20;99.90;;;;;;5073386;28;20659;-70
2022/01/26 07:01:53;;;;;;;30.23;17.27;;;0.20;99.90;;;;;;5073625;28;20252;-72
2022/01/26 07:04:19;;;;;;;33.25;17.55;;;0.10;99.90;;;;;;5073747;28;20208;-70
2022/01/26 07:06:46;;;;;;;31.35;15.90;;;0.20;99.90;;;;;;5073531;28;20219;-71
2022/01/26 07:09:12;;;;;;;37.33;17.27;;;0.10;99.90;;;;;;5073384;28;20204;-70
2022/01/26 07:11:39;;;;;;;38.05;18.05;;;0.10;99.90;;;;;;5073020;28;20553;-70
2022/01/26 07:14:09;;;;;;;33.00;16.27;;;0.10;99.90;;;;;;5073133;28;20204;-71
2022/01/26 07:22:05;;;;;;;37.50;17.30;;;0.10;99.90;;;;;;5073018;28;20540;-71
2022/01/26 07:24:32;;;;;;;30.48;15.20;;;0.10;99.90;;;;;;5073114;28;20208;-71
2022/01/26 07:26:58;;;;;;;31.30;15.57;;;0.10;99.90;;;;;;5073653;28;20203;-72
2022/01/26 07:29:25;;;;;;;38.53;15.68;;;0.10;99.90;;;;;;5073647;28;20200;-72
2022/01/26 07:31:52;;;;;;;30.35;14.30;;;0.00;99.90;;;;;;5073945;28;20204;-72
2022/01/26 07:34:21;;;;;;;26.17;14.98;;;0.00;99.90;;;;;;5073483;28;20200;-72
2022/01/26 07:36:49;;;;;;;32.47;15.75;;;0.00;99.90;;;;;;5077767;28;20714;-72
2022/01/26 07:39:28;;;;;;;24.55;12.95;;;0.10;99.90;;;;;;5077162;28;20199;-71
2022/01/26 07:41:54;;;;;;;27.90;14.60;;;0.20;99.90;;;;;;5077382;28;20207;-71
2022/01/26 07:44:21;;;;;;;21.75;12.77;;;0.20;99.90;;;;;;5076692;28;20196;-71
2022/01/26 07:46:47;;;;;;;24.73;13.40;;;0.20;99.90;;;;;;5076716;28;20618;-71
2022/01/26 07:49:14;;;;;;;28.08;14.82;;;0.10;99.90;;;;;;5077188;28;20620;-71
2022/01/26 07:51:40;;;;;;;31.40;15.40;;;0.20;99.90;;;;;;5076834;28;20236;-70
2022/01/26 07:54:06;;;;;;;27.80;14.90;;;0.30;99.90;;;;;;5076767;28;20647;-70
2022/01/26 07:56:33;;;;;;;31.73;16.17;;;0.30;99.90;;;;;;5077228;28;20204;-70
2022/01/26 07:58:59;;;;;;;31.73;15.98;;;0.30;99.90;;;;;;5075616;28;20196;-71
2022/01/26 08:01:26;;;;;;;30.50;15.20;;;0.40;99.90;;;;;;5077021;28;20207;-71
2022/01/26 08:03:52;;;;;;;30.27;16.95;;;0.10;99.90;;;;;;5076704;28;20196;-72
2022/01/26 08:06:19;;;;;;;37.20;15.90;;;0.20;99.90;;;;;;5076632;28;20667;-71
2022/01/26 08:08:45;;;;;;;33.33;16.98;;;0.30;99.90;;;;;;5076327;28;20627;-71
2022/01/26 08:11:11;;;;;;;32.20;16.27;;;0.30;99.90;;;;;;5076444;28;20208;-71
2022/01/26 08:13:38;;;;;;;31.20;17.05;;;0.30;99.90;;;;;;5076368;28;20242;-71
2022/01/26 08:16:04;;;;;;;27.50;15.63;;;0.30;99.90;;;;;;5076420;28;20196;-71
2022/01/26 08:18:31;;;;;;;29.90;15.82;;;0.20;99.90;;;;;;5076671;28;20656;-71
2022/01/26 08:21:04;;;;;;;34.35;17.65;;;0.20;99.90;;;;;;5074444;28;20245;-70
2022/01/26 08:23:31;;;;;;;31.23;17.45;;;0.20;99.90;;;;;;5075841;28;20226;-70
2022/01/26 08:25:59;;;;;;;32.83;15.70;;;0.20;99.90;;;;;;5075933;28;20206;-71
2022/01/26 08:28:31;;;;;;;31.85;16.83;;;0.10;99.90;;;;;;5075768;28;20215;-70
2022/01/26 08:30:57;;;;;;;28.05;14.88;;;0.10;99.90;;;;;;5076008;28;20567;-70
2022/01/26 08:33:24;;;;;;;30.95;14.82;;;0.10;99.90;;;;;;5075343;28;20804;-71
2022/01/26 08:35:50;;;;;;;32.30;16.83;;;0.10;99.90;;;;;;5075696;28;20719;-70
2022/01/26 08:38:17;;;;;;;36.63;17.77;;;0.10;99.90;;;;;;5075565;28;20199;-72
2022/01/26 08:40:45;;;;;;;34.65;16.08;;;0.30;99.90;;;;;;5075836;28;20200;-71
2022/01/26 08:43:11;;;;;;;32.03;15.80;;;0.20;99.90;;;;;;5074311;28;20232;-71
2022/01/26 08:45:38;;;;;;;26.42;14.77;;;0.10;99.90;;;;;;5074194;28;20204;-72
2022/01/26 08:48:05;;;;;;;34.05;17.33;;;0.20;99.90;;;;;;5075684;28;20208;-72
2022/01/26 08:50:32;;;;;;;33.13;17.13;;;0.20;99.90;;;;;;5076162;28;20252;-71
2022/01/26 08:52:59;;;;;;;29.42;18.10;;;0.20;99.90;;;;;;5074906;28;20239;-70
2022/01/26 08:55:26;;;;;;;26.33;16.45;;;0.10;99.90;;;;;;5076379;28;20643;-72
2022/01/26 08:57:52;;;;;;;38.80;18.58;;;0.10;99.90;;;;;;5075672;28;20615;-71
2022/01/26 09:00:18;;;;;;;33.42;18.08;;;0.20;99.90;;;;;;5074629;28;20219;-72
2022/01/26 09:02:46;;;;;;;27.75;17.67;;;0.20;99.90;;;;;;5075880;28;20211;-72
2022/01/26 09:05:14;;;;;;;28.30;15.10;;;0.30;99.90;;;;;;5075250;28;20206;-71
2022/01/26 09:07:43;;;;;;;26.90;14.80;;;0.30;99.90;;;;;;5076227;28;20232;-72
2022/01/26 09:10:10;;;;;;;24.35;14.07;;;0.40;99.90;;;;;;5074917;28;20200;-71
2022/01/26 09:12:40;;;;;;;24.40;14.93;;;0.40;99.90;;;;;;5074333;28;20643;-72
2022/01/26 09:15:09;;;;;;;25.13;15.15;;;0.40;99.90;;;;;;5075729;28;20654;-72
2022/01/26 09:17:36;;;;;;;24.02;13.82;;;0.60;99.90;;;;;;5075612;28;20204;-72
2022/01/26 09:20:05;;;;;;;28.45;14.93;;;0.50;99.90;;;;;;5075094;28;20551;-72
2022/01/26 09:22:32;;;;;;;28.08;13.95;;;0.50;99.90;;;;;;5075125;28;20226;-72
2022/01/26 09:24:58;;;;;;;24.75;14.18;;;0.60;99.90;;;;;;5075313;28;20581;-72
2022/01/26 09:27:25;;;;;;;26.67;14.88;;;0.50;99.90;;;;;;5075691;28;20203;-72
2022/01/26 09:29:51;;;;;;;30.55;14.90;;;0.40;99.90;;;;;;5075647;28;20204;-72
2022/01/26 09:32:18;;;;;;;31.63;15.88;;;0.40;99.90;;;;;;5075553;28;20215;-72
2022/01/26 09:34:45;;;;;;;24.20;13.00;;;0.50;99.90;;;;;;5074492;28;20273;-72
2022/01/26 09:37:13;;;;;;;28.50;14.43;;;0.50;99.90;;;;;;5075166;28;20203;-72
2022/01/26 09:39:41;;;;;;;28.60;15.77;;;0.60;99.90;;;;;;5075167;28;20204;-72
2022/01/26 09:42:09;;;;;;;29.17;15.82;;;0.40;99.90;;;;;;5074940;28;20724;-73
2022/01/26 09:44:37;;;;;;;33.72;16.60;;;0.50;99.90;;;;;;5073927;28;20200;-72
2022/01/26 09:47:04;;;;;;;29.38;16.95;;;0.40;99.90;;;;;;5074663;28;20583;-71
2022/01/26 09:49:33;;;;;;;32.00;17.73;;;0.50;99.90;;;;;;5074505;28;20202;-70
2022/01/26 09:52:13;;;;;;;29.77;16.27;;;0.50;99.90;;;;;;5074905;28;20243;-72
2022/01/26 09:54:40;;;;;;;29.80;16.05;;;0.50;99.90;;;;;;5074421;28;20206;-72
2022/01/26 09:57:07;;;;;;;28.20;16.42;;;0.50;99.90;;;;;;5074905;28;20215;-71
2022/01/26 09:59:34;;;;;;;31.83;17.15;;;0.50;99.90;;;;;;5074521;28;20659;-72
2022/01/26 10:02:01;;;;;;;30.77;16.55;;;0.60;99.90;;;;;;5074448;28;20565;-72
2022/01/26 10:04:32;;;;;;;30.75;16.58;;;0.60;99.90;;;;;;5074220;28;20196;-71
2022/01/26 10:10:34;;;;;;;26.70;15.93;;;0.70;99.90;;;;;;5075049;28;20206;-71
2022/01/26 10:18:15;;;;;;;30.25;16.38;;;0.50;99.90;;;;;;5074412;28;20187;-71
2022/01/26 10:20:41;;;;;;;28.83;16.88;;;0.50;99.90;;;;;;5073221;28;20202;-72
2022/01/26 10:23:13;;;;;;;26.20;14.60;;;0.60;99.90;;;;;;5073934;28;20679;-71
2022/01/26 10:25:44;;;;;;;30.85;14.55;;;0.60;99.90;;;;;;5074231;28;20196;-72
2022/01/26 10:28:11;;;;;;;30.27;16.65;;;0.70;99.90;;;;;;5074002;28;20199;-72
2022/01/26 10:30:44;;;;;;;32.17;16.80;;;0.60;99.90;;;;;;5074256;28;20192;-71
2022/01/26 10:33:11;;;;;;;30.40;15.63;;;0.70;99.90;;;;;;5073957;28;20257;-71
2022/01/26 10:35:38;;;;;;;31.75;15.93;;;0.70;99.90;;;;;;5073877;28;20226;-73
2022/01/26 10:38:05;;;;;;;33.90;16.23;;;0.80;99.90;;;;;;5073418;28;20626;-71
2022/01/26 10:40:32;;;;;;;28.17;15.18;;;0.80;99.90;;;;;;5073485;28;20199;-71
2022/01/26 10:43:10;;;;;;;27.77;15.65;;;0.80;99.90;;;;;;5073178;28;20206;-71
2022/01/26 10:46:01;;;;;;;26.77;15.75;;;0.80;99.90;;;;;;5073667;28;20191;-72
2022/01/26 10:48:38;;;;;;;27.08;14.45;;;0.70;99.90;;;;;;5073548;28;20211;-72
2022/01/26 10:53:57;;;;;;;30.73;16.60;;;0.80;99.90;;;;;;5073519;28;20216;-72
2022/01/26 10:56:23;;;;;;;26.92;15.20;;;0.90;99.90;;;;;;5074281;28;20203;-71
2022/01/26 10:58:50;;;;;;;31.65;16.25;;;0.90;99.90;;;;;;5073591;28;20244;-71
2022/01/26 11:01:17;;;;;;;28.45;15.43;;;0.90;99.90;;;;;;5072889;28;20601;-71
2022/01/26 11:03:44;;;;;;;30.75;16.40;;;0.90;99.90;;;;;;5073286;28;20204;-70
2022/01/26 11:06:19;;;;;;;32.95;16.00;;;0.80;99.90;;;;;;5072316;28;20226;-70
2022/01/26 11:08:48;;;;;;;31.80;16.10;;;0.80;99.90;;;;;;5073758;28;20188;-69
2022/01/26 11:11:22;;;;;;;28.42;14.68;;;0.90;99.90;;;;;;5077266;28;20208;-71
2022/01/26 11:13:50;;;;;;;31.40;15.73;;;0.90;99.90;;;;;;5077903;28;20209;-70
2022/01/26 11:16:20;;;;;;;29.23;16.40;;;1.00;99.90;;;;;;5076970;28;20193;-70
2022/01/26 11:18:58;;;;;;;30.33;15.50;;;1.00;99.90;;;;;;5076399;28;20226;-70
2022/01/26 11:21:38;;;;;;;26.90;16.35;;;1.10;99.90;;;;;;5077499;28;20210;-70
2022/01/26 11:24:08;;;;;;;26.77;15.20;;;1.00;99.90;;;;;;5076794;28;20644;-69
2022/01/26 11:26:38;;;;;;;23.85;15.25;;;1.00;99.90;;;;;;5077442;28;20208;-71
2022/01/26 11:29:18;;;;;;;27.38;15.18;;;1.10;99.90;;;;;;5081700;28;20633;-72
2022/01/26 11:31:45;;;;;;;24.25;13.65;;;1.20;99.90;;;;;;5077776;28;20192;-71
2022/01/26 11:34:15;;;;;;;28.13;13.57;;;1.30;99.90;;;;;;5075477;28;20220;-71
2022/01/26 11:36:42;;;;;;;21.88;14.48;;;1.40;99.90;;;;;;5077557;28;20195;-71
2022/01/26 11:42:28;;;;;;;22.92;14.98;;;1.20;99.90;;;;;;5076991;28;20187;-71
2022/01/26 11:45:16;;;;;;;36.30;14.52;;;1.30;99.90;;;;;;5076903;28;20184;-72
2022/01/26 11:47:45;;;;;;;22.92;13.93;;;1.30;99.90;;;;;;5077102;28;20180;-71
2022/01/26 11:50:20;;;;;;;27.63;14.63;;;1.30;99.90;;;;;;5075626;28;20215;-71
2022/01/26 11:53:04;;;;;;;25.67;15.02;;;1.30;99.90;;;;;;5076417;28;21244;-70
2022/01/26 11:55:52;;;;;;;29.05;15.35;;;1.30;99.90;;;;;;5077144;28;20188;-70
2022/01/26 11:58:34;;;;;;;25.88;14.95;;;1.40;99.90;;;;;;5077733;28;20344;-71
2022/01/26 12:01:25;;;;;;;30.83;16.15;;;1.50;99.90;;;;;;5076365;28;20200;-71
2022/01/26 12:03:59;;;;;;;24.38;14.43;;;1.50;99.90;;;;;;5075815;28;20192;-71
2022/01/26 12:06:42;;;;;;;25.15;15.80;;;1.50;99.90;;;;;;5076909;28;20624;-71
2022/01/26 12:09:10;;;;;;;15.77;11.30;;;1.50;99.90;;;;;;5076773;28;20208;-72
2022/01/26 12:11:37;;;;;;;16.05;10.90;;;1.50;99.90;;;;;;5076419;28;20200;-72
2022/01/26 12:14:06;;;;;;;21.85;12.15;;;1.50;99.90;;;;;;5076830;28;20224;-71
2022/01/26 12:16:46;;;;;;;18.08;11.80;;;1.50;99.90;;;;;;5075440;28;20203;-71
2022/01/26 12:19:31;;;;;;;17.38;10.40;;;1.60;99.90;;;;;;5077054;28;20188;-70
2022/01/26 12:36:40;;;;;;;13.77;9.55;;;1.50;99.90;;;;;;5076572;28;20200;-71
2022/01/26 12:39:12;;;;;;;15.98;10.00;;;1.50;99.90;;;;;;5075713;28;20184;-71
2022/01/26 12:41:45;;;;;;;15.07;8.90;;;1.50;99.90;;;;;;5076251;28;20559;-71
2022/01/26 12:44:13;;;;;;;18.10;10.73;;;1.30;99.90;;;;;;5077135;28;20256;-72
2022/01/26 12:46:40;;;;;;;18.83;11.05;;;1.40;99.90;;;;;;5076074;28;20349;-73
2022/01/26 12:49:15;;;;;;;16.98;10.10;;;1.30;99.90;;;;;;5076103;28;20200;-73
2022/01/26 12:51:47;;;;;;;20.40;11.32;;;1.30;99.90;;;;;;5074343;28;20710;-72
2022/01/26 12:54:15;;;;;;;17.38;10.25;;;1.20;99.90;;;;;;5075729;28;20627;-71
2022/01/26 12:56:42;;;;;;;16.25;10.15;;;1.10;99.90;;;;;;5075680;28;20196;-71
2022/01/26 12:59:11;;;;;;;19.23;9.75;;;1.20;99.90;;;;;;5075976;28;20199;-72
2022/01/26 13:01:38;;;;;;;17.27;9.77;;;1.30;99.90;;;;;;5076321;28;20203;-71
2022/01/26 13:04:07;;;;;;;19.17;11.27;;;1.20;99.90;;;;;;5075628;28;20269;-72
2022/01/26 13:06:37;;;;;;;17.80;11.02;;;1.10;99.90;;;;;;5075590;28;20242;-72
2022/01/26 13:09:17;;;;;;;17.60;10.18;;;1.20;99.90;;;;;;5075750;28;20204;-73
2022/01/26 13:11:46;;;;;;;18.10;10.07;;;1.30;99.90;;;;;;5075980;28;20207;-72
2022/01/26 13:14:15;;;;;;;18.10;10.32;;;1.20;99.90;;;;;;5074904;28;20260;-73
2022/01/26 13:20:03;;;;;;;17.80;11.80;;;1.10;99.90;;;;;;5075280;28;20188;-71
2022/01/26 13:28:34;;;;;;;20.25;11.93;;;1.20;99.90;;;;;;5077037;28;20658;-71
2022/01/26 13:31:23;;;;;;;18.20;11.70;;;1.20;99.90;;;;;;5075910;28;20188;-71
2022/01/26 13:41:31;;;;;;;19.90;12.25;;;1.00;99.90;;;;;;5076568;28;20195;-70
2022/01/26 13:44:34;;;;;;;17.75;12.13;;;1.00;99.90;;;;;;5075625;28;20208;-70
2022/01/26 13:50:02;;;;;;;19.05;12.38;;;1.10;99.90;;;;;;5063124;28;20211;-71
2022/01/26 14:01:04;;;;;;;22.38;13.93;;;1.20;99.90;;;;;;5074732;28;20195;-72
2022/01/26 14:03:33;;;;;;;29.02;14.55;;;1.20;99.90;;;;;;5074806;28;20253;-72
2022/01/26 14:06:00;;;;;;;28.42;18.90;;;1.20;99.90;;;;;;5073891;28;20223;-71
2022/01/26 14:08:26;;;;;;;23.67;14.88;;;1.20;99.90;;;;;;5072784;28;20264;-71
2022/01/26 14:10:53;;;;;;;22.63;14.38;;;1.20;99.90;;;;;;5075446;28;20196;-72
2022/01/26 14:13:22;;;;;;;20.20;13.82;;;1.30;99.90;;;;;;5075171;28;20280;-71
2022/01/26 14:15:51;;;;;;;21.58;14.52;;;1.20;99.90;;;;;;5075258;28;20565;-71
2022/01/26 14:23:44;;;;;;;21.33;14.25;;;1.10;99.90;;;;;;5074840;28;20235;-69
2022/01/26 14:26:13;;;;;;;30.25;17.20;;;1.10;99.90;;;;;;5074775;28;20656;-69
2022/01/26 14:28:40;;;;;;;33.58;16.40;;;1.20;99.90;;;;;;5073565;28;20574;-70
2022/01/26 14:31:23;;;;;;;23.02;15.27;;;1.20;99.90;;;;;;5074574;28;20675;-71
2022/01/26 15:08:48;;;;;;;22.60;14.70;;;1.30;99.90;;;;;;5075895;28;20523;-71
2022/01/26 15:42:59;;;;;;;24.98;15.77;;;1.20;99.90;;;;;;5074337;28;20200;-70
2022/01/26 15:51:04;;;;;;;22.55;14.93;;;1.20;99.90;;;;;;5074020;28;20717;-71
2022/01/26 16:07:22;;;;;;;26.23;14.93;;;1.00;99.90;;;;;;5077997;28;20242;-72
2022/01/26 16:12:55;;;;;;;18.58;13.40;;;1.00;99.90;;;;;;5078036;28;20188;-71
2022/01/26 16:21:05;;;;;;;25.45;15.27;;;1.00;99.90;;;;;;5077584;28;20229;-71
2022/01/26 16:26:31;;;;;;;23.20;14.57;;;1.10;99.90;;;;;;5077078;28;20271;-72
2022/01/26 17:02:34;;;;;;;19.77;14.60;;;0.90;99.90;;;;;;5067673;28;20199;-71
2022/01/26 17:24:38;;;;;;;25.50;16.77;;;1.00;99.90;;;;;;5075496;28;20180;-71
2022/01/26 18:26:48;;;;;;;22.05;13.05;;;0.70;99.90;;;;;;5075352;28;20238;-70
2022/01/26 18:40:29;;;;;;;26.55;15.75;;;0.60;99.90;;;;;;5075435;28;20185;-70
2022/01/26 18:51:03;;;;;;;23.90;14.65;;;0.70;99.90;;;;;;5074692;28;20192;-70
2022/01/26 18:53:30;;;;;;;21.95;12.77;;;0.60;99.90;;;;;;5074468;28;20227;-69
2022/01/26 18:55:56;;;;;;;24.88;13.27;;;0.70;99.90;;;;;;5075863;28;20216;-70
2022/01/26 18:58:23;;;;;;;21.15;13.88;;;0.60;99.90;;;;;;5074904;28;20200;-69
2022/01/26 19:00:49;;;;;;;24.33;13.98;;;0.60;99.90;;;;;;5074869;28;20211;-70
2022/01/26 19:03:16;;;;;;;22.67;13.05;;;0.60;99.90;;;;;;5075495;28;20195;-70
2022/01/26 19:05:44;;;;;;;23.00;13.20;;;0.60;99.90;;;;;;5074956;28;20269;-70
2022/01/26 19:08:10;;;;;;;25.77;14.15;;;0.50;99.90;;;;;;5074918;28;20210;-70
2022/01/26 19:10:37;;;;;;;25.33;14.05;;;0.50;99.90;;;;;;5075972;28;20572;-70
2022/01/26 19:13:03;;;;;;;26.27;14.95;;;0.50;99.90;;;;;;5076102;28;20200;-70
2022/01/26 19:15:32;;;;;;;22.40;13.45;;;0.50;99.90;;;;;;5075343;28;20266;-70
2022/01/26 19:23:13;;;;;;;24.58;13.63;;;0.50;99.90;;;;;;5075017;28;20176;-70
2022/01/26 19:25:54;;;;;;;27.05;14.07;;;0.60;99.90;;;;;;5074356;28;20728;-71